VTK601 UHWW-UHMM
Flight info
| Callsign | VTK601 |
|---|---|
| Flight time | 2h 37m |
| Altitude | 31000 |
| Route | DOLMA2G DOLMA B356 TD W307 FI/K0887F390 N222 NA L160 ABAGO/K0824F250 A218 BANOT BANOT5J |
| Aircraft | A35K/H-SDE2E3GHIJ3J4J5LM1ORWXY/LB1D1 |
Departure
| Time | 2026-04-20 05:12 |
|---|---|
| Airport | Vladivostok International Airport (UHWW) |
Arrival
| Time | 2026-04-20 07:49 |
|---|---|
| Airport | Sokol Airport (UHMM) |
| Time | Latitude | Longitude | Altitude | Speed | Heading |
|---|---|---|---|---|---|
| 2026-04-20 04:59 | 43.39670 | 132.16329 | 75 ft | 0 kts | 152° |
| 2026-04-20 05:06 | 43.39688 | 132.16315 | 65 ft | 3 kts | 152° |
| 2026-04-20 05:07 | 43.39710 | 132.16300 | 75 ft | 3 kts | 152° |
| 2026-04-20 05:07 | 43.39731 | 132.16283 | 65 ft | 3 kts | 130° |
| 2026-04-20 05:07 | 43.39735 | 132.16256 | 75 ft | 3 kts | 63° |
| 2026-04-20 05:07 | 43.39737 | 132.16262 | 75 ft | 0 kts | 66° |
| 2026-04-20 05:09 | 43.39739 | 132.16267 | 75 ft | 3 kts | 66° |
| 2026-04-20 05:09 | 43.39775 | 132.16368 | 65 ft | 18 kts | 63° |
| 2026-04-20 05:09 | 43.39842 | 132.16548 | 65 ft | 24 kts | 61° |
| 2026-04-20 05:10 | 43.39931 | 132.16757 | 74 ft | 26 kts | 59° |
| 2026-04-20 05:10 | 43.40019 | 132.16973 | 75 ft | 22 kts | 61° |
| 2026-04-20 05:10 | 43.40110 | 132.17076 | 69 ft | 18 kts | 0° |
| 2026-04-20 05:10 | 43.40232 | 132.17004 | 65 ft | 20 kts | 333° |
| 2026-04-20 05:11 | 43.40367 | 132.16909 | 70 ft | 23 kts | 334° |
| 2026-04-20 05:11 | 43.40433 | 132.16824 | 67 ft | 12 kts | 280° |
| 2026-04-20 05:11 | 43.40399 | 132.16711 | 63 ft | 14 kts | 240° |
| 2026-04-20 05:11 | 43.40294 | 132.16453 | 64 ft | 64 kts | 241° |
| 2026-04-20 05:12 | 43.39957 | 132.15620 | 63 ft | 133 kts | 241° |
| 2026-04-20 05:12 | 43.39441 | 132.14333 | 436 ft | 157 kts | 239° |
| 2026-04-20 05:12 | 43.38914 | 132.13053 | 1298 ft | 156 kts | 235° |
| 2026-04-20 05:12 | 43.38347 | 132.11667 | 1641 ft | 178 kts | 233° |
| 2026-04-20 05:13 | 43.37699 | 132.10092 | 1911 ft | 199 kts | 233° |
| 2026-04-20 05:13 | 43.37007 | 132.08378 | 2437 ft | 209 kts | 233° |
| 2026-04-20 05:13 | 43.36296 | 132.06606 | 3198 ft | 213 kts | 235° |
| 2026-04-20 05:13 | 43.35572 | 132.04823 | 4054 ft | 212 kts | 236° |
| 2026-04-20 05:14 | 43.34870 | 132.03018 | 4750 ft | 216 kts | 242° |
| 2026-04-20 05:14 | 43.34504 | 132.00901 | 5124 ft | 246 kts | 265° |
| 2026-04-20 05:14 | 43.35042 | 131.98594 | 5722 ft | 267 kts | 297° |
| 2026-04-20 05:14 | 43.36524 | 131.96891 | 6397 ft | 295 kts | 329° |
| 2026-04-20 05:15 | 43.38604 | 131.96403 | 7010 ft | 317 kts | 1° |
| 2026-04-20 05:15 | 43.40709 | 131.97383 | 7635 ft | 327 kts | 34° |
| 2026-04-20 05:15 | 43.42283 | 131.99602 | 8275 ft | 325 kts | 62° |
| 2026-04-20 05:15 | 43.43480 | 132.02272 | 8947 ft | 331 kts | 63° |
| 2026-04-20 05:16 | 43.44763 | 132.04947 | 9607 ft | 340 kts | 59° |
| 2026-04-20 05:16 | 43.46195 | 132.07582 | 10068 ft | 352 kts | 56° |
| 2026-04-20 05:16 | 43.47743 | 132.10239 | 10312 ft | 370 kts | 54° |
| 2026-04-20 05:16 | 43.49433 | 132.13029 | 10579 ft | 388 kts | 53° |
| 2026-04-20 05:17 | 43.51218 | 132.15913 | 10847 ft | 405 kts | 53° |
| 2026-04-20 05:17 | 43.53068 | 132.18892 | 11309 ft | 412 kts | 52° |
| 2026-04-20 05:17 | 43.54948 | 132.21893 | 11963 ft | 416 kts | 52° |
| 2026-04-20 05:17 | 43.56844 | 132.24919 | 12546 ft | 420 kts | 52° |
| 2026-04-20 05:18 | 43.58764 | 132.27985 | 13171 ft | 424 kts | 52° |
| 2026-04-20 05:18 | 43.60695 | 132.31076 | 13754 ft | 428 kts | 52° |
| 2026-04-20 05:18 | 43.62662 | 132.34221 | 14322 ft | 436 kts | 52° |
| 2026-04-20 05:18 | 43.64640 | 132.37393 | 14912 ft | 438 kts | 52° |
| 2026-04-20 05:19 | 43.66646 | 132.40606 | 15512 ft | 443 kts | 52° |
| 2026-04-20 05:19 | 43.68667 | 132.43859 | 16131 ft | 447 kts | 52° |
| 2026-04-20 05:19 | 43.70699 | 132.47121 | 16793 ft | 449 kts | 52° |
| 2026-04-20 05:19 | 43.72744 | 132.50402 | 17310 ft | 453 kts | 52° |
| 2026-04-20 05:20 | 43.74813 | 132.53719 | 17735 ft | 458 kts | 52° |
| 2026-04-20 05:20 | 43.76897 | 132.57087 | 18225 ft | 462 kts | 52° |
| 2026-04-20 05:20 | 43.78972 | 132.60443 | 18730 ft | 467 kts | 52° |
| 2026-04-20 05:20 | 43.81174 | 132.63769 | 19205 ft | 472 kts | 47° |
| 2026-04-20 05:21 | 43.83558 | 132.66932 | 19699 ft | 477 kts | 44° |
| 2026-04-20 05:21 | 43.86029 | 132.70020 | 20255 ft | 479 kts | 42° |
| 2026-04-20 05:21 | 43.88549 | 132.73085 | 20686 ft | 485 kts | 42° |
| 2026-04-20 05:21 | 43.91098 | 132.76167 | 21126 ft | 487 kts | 41° |
| 2026-04-20 05:22 | 43.93663 | 132.79273 | 21493 ft | 493 kts | 42° |
| 2026-04-20 05:22 | 43.96249 | 132.82428 | 21891 ft | 496 kts | 42° |
| 2026-04-20 05:22 | 43.98843 | 132.85616 | 22296 ft | 501 kts | 42° |
| 2026-04-20 05:22 | 44.01467 | 132.88859 | 22737 ft | 508 kts | 42° |
| 2026-04-20 05:23 | 44.04109 | 132.92129 | 23338 ft | 510 kts | 42° |
| 2026-04-20 05:23 | 44.06760 | 132.95424 | 23797 ft | 510 kts | 42° |
| 2026-04-20 05:23 | 44.09406 | 132.98719 | 24073 ft | 511 kts | 42° |
| 2026-04-20 05:23 | 44.12069 | 133.02028 | 24196 ft | 518 kts | 42° |
| 2026-04-20 05:24 | 44.14760 | 133.05377 | 24578 ft | 519 kts | 42° |
| 2026-04-20 05:24 | 44.17458 | 133.08741 | 24962 ft | 520 kts | 42° |
| 2026-04-20 05:24 | 44.20229 | 133.12020 | 25316 ft | 525 kts | 38° |
| 2026-04-20 05:24 | 44.23123 | 133.15127 | 25756 ft | 526 kts | 37° |
| 2026-04-20 05:25 | 44.26054 | 133.18198 | 26140 ft | 529 kts | 36° |
| 2026-04-20 05:25 | 44.28982 | 133.21223 | 26539 ft | 531 kts | 36° |
| 2026-04-20 05:25 | 44.31996 | 133.24328 | 26835 ft | 531 kts | 36° |
| 2026-04-20 05:25 | 44.34995 | 133.27411 | 27032 ft | 538 kts | 36° |
| 2026-04-20 05:26 | 44.38019 | 133.30522 | 27368 ft | 543 kts | 35° |
| 2026-04-20 05:26 | 44.41056 | 133.33665 | 27878 ft | 543 kts | 36° |
| 2026-04-20 05:26 | 44.44069 | 133.36777 | 28340 ft | 546 kts | 36° |
| 2026-04-20 05:26 | 44.47117 | 133.39956 | 28782 ft | 549 kts | 37° |
| 2026-04-20 05:27 | 44.50200 | 133.43173 | 28990 ft | 558 kts | 36° |
| 2026-04-20 05:27 | 44.53329 | 133.46420 | 29445 ft | 560 kts | 36° |
| 2026-04-20 05:27 | 44.56457 | 133.49677 | 29798 ft | 564 kts | 37° |
| 2026-04-20 05:27 | 44.59605 | 133.52979 | 30193 ft | 564 kts | 36° |
| 2026-04-20 05:28 | 44.62754 | 133.56281 | 30451 ft | 568 kts | 36° |
| 2026-04-20 05:28 | 44.65921 | 133.59608 | 30593 ft | 565 kts | 36° |
| 2026-04-20 05:28 | 44.69041 | 133.62879 | 30633 ft | 557 kts | 36° |
| 2026-04-20 05:29 | 44.75226 | 133.69373 | 30630 ft | 554 kts | 36° |
| 2026-04-20 05:29 | 44.81390 | 133.75860 | 30626 ft | 554 kts | 36° |
| 2026-04-20 05:30 | 44.87559 | 133.82376 | 30631 ft | 554 kts | 36° |
| 2026-04-20 05:30 | 44.93729 | 133.88887 | 30624 ft | 554 kts | 35° |
| 2026-04-20 05:31 | 45.00007 | 133.95166 | 30591 ft | 552 kts | 34° |
| 2026-04-20 05:31 | 45.06311 | 134.01342 | 30701 ft | 551 kts | 34° |
| 2026-04-20 05:32 | 45.12592 | 134.07586 | 30627 ft | 553 kts | 34° |
| 2026-04-20 05:32 | 45.18890 | 134.13900 | 30613 ft | 554 kts | 35° |
| 2026-04-20 05:33 | 45.25178 | 134.20219 | 30622 ft | 553 kts | 35° |
| 2026-04-20 05:33 | 45.31450 | 134.26576 | 30621 ft | 553 kts | 35° |
| 2026-04-20 05:34 | 45.37716 | 134.32918 | 30606 ft | 550 kts | 36° |
| 2026-04-20 05:34 | 45.47072 | 134.42409 | 30613 ft | 550 kts | 35° |
| 2026-04-20 05:35 | 45.53265 | 134.48707 | 30615 ft | 550 kts | 35° |
| 2026-04-20 05:35 | 45.59491 | 134.55075 | 30609 ft | 550 kts | 35° |
| 2026-04-20 05:36 | 45.65735 | 134.61477 | 30623 ft | 554 kts | 35° |
| 2026-04-20 05:36 | 45.71979 | 134.67881 | 30610 ft | 551 kts | 36° |
| 2026-04-20 05:37 | 45.78217 | 134.74311 | 30615 ft | 552 kts | 35° |
| 2026-04-20 05:37 | 45.84445 | 134.80766 | 30615 ft | 553 kts | 35° |
| 2026-04-20 05:38 | 45.90921 | 134.86628 | 30597 ft | 551 kts | 21° |
| 2026-04-20 05:38 | 45.98047 | 134.90440 | 30617 ft | 544 kts | 14° |
| 2026-04-20 05:39 | 46.05214 | 134.93766 | 30624 ft | 542 kts | 13° |
| 2026-04-20 05:39 | 46.12389 | 134.97079 | 30635 ft | 542 kts | 14° |
| 2026-04-20 05:40 | 46.19574 | 135.00457 | 30621 ft | 543 kts | 14° |
| 2026-04-20 05:40 | 46.26757 | 135.03853 | 30623 ft | 542 kts | 14° |
| 2026-04-20 05:41 | 46.33921 | 135.07265 | 30626 ft | 542 kts | 14° |
| 2026-04-20 05:41 | 46.41094 | 135.10685 | 30627 ft | 543 kts | 13° |
| 2026-04-20 05:42 | 46.48260 | 135.14109 | 30649 ft | 542 kts | 14° |
| 2026-04-20 05:42 | 46.55446 | 135.17553 | 30618 ft | 545 kts | 14° |
| 2026-04-20 05:43 | 46.62603 | 135.20983 | 30621 ft | 546 kts | 13° |
| 2026-04-20 05:43 | 46.69808 | 135.24451 | 30622 ft | 545 kts | 13° |
| 2026-04-20 05:44 | 46.77003 | 135.27924 | 30621 ft | 544 kts | 13° |
| 2026-04-20 05:44 | 46.84197 | 135.31398 | 30623 ft | 544 kts | 13° |
| 2026-04-20 05:45 | 46.90193 | 135.34174 | 30618 ft | 544 kts | 12° |
| 2026-04-20 05:45 | 46.97437 | 135.37444 | 30623 ft | 546 kts | 12° |
| 2026-04-20 05:46 | 47.04659 | 135.40736 | 30624 ft | 542 kts | 13° |
| 2026-04-20 05:46 | 47.11859 | 135.44054 | 30628 ft | 542 kts | 12° |
| 2026-04-20 05:47 | 47.19057 | 135.47350 | 30631 ft | 542 kts | 13° |
| 2026-04-20 05:47 | 47.26238 | 135.50689 | 30630 ft | 541 kts | 12° |
| 2026-04-20 05:48 | 47.33421 | 135.54011 | 30623 ft | 541 kts | 13° |
| 2026-04-20 05:48 | 47.40613 | 135.57351 | 30631 ft | 542 kts | 14° |
| 2026-04-20 05:49 | 47.47801 | 135.60749 | 30626 ft | 543 kts | 13° |
| 2026-04-20 05:49 | 47.54986 | 135.64095 | 30632 ft | 537 kts | 12° |
| 2026-04-20 05:50 | 47.62135 | 135.67413 | 30636 ft | 541 kts | 13° |
| 2026-04-20 05:50 | 47.69305 | 135.70771 | 30625 ft | 540 kts | 13° |
| 2026-04-20 05:51 | 47.76482 | 135.74155 | 30617 ft | 542 kts | 12° |
| 2026-04-20 05:51 | 47.83677 | 135.77566 | 30620 ft | 541 kts | 12° |
| 2026-04-20 05:52 | 47.90832 | 135.80991 | 30621 ft | 540 kts | 13° |
| 2026-04-20 05:52 | 47.97973 | 135.84390 | 30653 ft | 536 kts | 12° |
| 2026-04-20 05:53 | 48.05059 | 135.87732 | 30629 ft | 540 kts | 12° |
| 2026-04-20 05:53 | 48.12218 | 135.91131 | 30624 ft | 540 kts | 13° |
| 2026-04-20 05:54 | 48.19350 | 135.94603 | 30629 ft | 538 kts | 13° |
| 2026-04-20 05:54 | 48.26521 | 135.98069 | 30614 ft | 542 kts | 12° |
| 2026-04-20 05:55 | 48.33649 | 136.01499 | 30644 ft | 538 kts | 12° |
| 2026-04-20 05:55 | 48.40776 | 136.04932 | 30645 ft | 539 kts | 13° |
| 2026-04-20 05:56 | 48.47921 | 136.08400 | 30652 ft | 540 kts | 12° |
| 2026-04-20 05:56 | 48.55075 | 136.11878 | 30658 ft | 538 kts | 12° |
| 2026-04-20 05:57 | 48.62189 | 136.15366 | 30667 ft | 538 kts | 12° |
| 2026-04-20 05:57 | 48.69314 | 136.18882 | 30669 ft | 538 kts | 12° |
| 2026-04-20 05:58 | 48.76441 | 136.22372 | 30679 ft | 538 kts | 12° |
| 2026-04-20 05:58 | 48.83564 | 136.25881 | 30683 ft | 538 kts | 12° |
| 2026-04-20 05:59 | 48.90671 | 136.29419 | 30685 ft | 538 kts | 12° |
| 2026-04-20 05:59 | 48.97775 | 136.32999 | 30689 ft | 537 kts | 12° |
| 2026-04-20 06:00 | 49.04874 | 136.36593 | 30697 ft | 537 kts | 12° |
| 2026-04-20 06:00 | 49.11966 | 136.40186 | 30697 ft | 537 kts | 12° |
| 2026-04-20 06:01 | 49.19064 | 136.43794 | 30700 ft | 537 kts | 12° |
| 2026-04-20 06:01 | 49.26158 | 136.47408 | 30705 ft | 538 kts | 12° |
| 2026-04-20 06:02 | 49.33252 | 136.51033 | 30716 ft | 537 kts | 12° |
| 2026-04-20 06:02 | 49.40339 | 136.54668 | 30724 ft | 537 kts | 12° |
| 2026-04-20 06:03 | 49.47209 | 136.59674 | 30973 ft | 560 kts | 28° |
| 2026-04-20 06:03 | 49.50529 | 136.62854 | 31110 ft | 566 kts | 29° |
| 2026-04-20 06:03 | 49.53854 | 136.66191 | 31314 ft | 575 kts | 30° |
| 2026-04-20 06:04 | 49.57197 | 136.69637 | 31729 ft | 580 kts | 31° |
| 2026-04-20 06:04 | 49.60544 | 136.73126 | 32148 ft | 583 kts | 31° |
| 2026-04-20 06:04 | 49.63911 | 136.76634 | 32490 ft | 585 kts | 31° |
| 2026-04-20 06:04 | 49.67304 | 136.80154 | 32857 ft | 590 kts | 31° |
| 2026-04-20 06:05 | 49.70706 | 136.83682 | 33377 ft | 588 kts | 31° |
| 2026-04-20 06:05 | 49.74082 | 136.87187 | 34029 ft | 581 kts | 30° |
| 2026-04-20 06:05 | 49.77419 | 136.90647 | 34729 ft | 573 kts | 30° |
| 2026-04-20 06:05 | 49.80713 | 136.94050 | 35491 ft | 566 kts | 31° |
| 2026-04-20 06:06 | 49.83957 | 136.97424 | 36346 ft | 555 kts | 31° |
| 2026-04-20 06:06 | 49.87141 | 137.00731 | 37091 ft | 548 kts | 31° |
| 2026-04-20 06:06 | 49.90291 | 137.04003 | 37711 ft | 542 kts | 32° |
| 2026-04-20 06:06 | 49.93408 | 137.07245 | 38219 ft | 538 kts | 32° |
| 2026-04-20 06:07 | 49.96514 | 137.10483 | 38531 ft | 538 kts | 32° |
| 2026-04-20 06:07 | 49.99619 | 137.13725 | 38730 ft | 538 kts | 32° |
| 2026-04-20 06:07 | 50.05861 | 137.20257 | 38782 ft | 540 kts | 32° |
| 2026-04-20 06:08 | 50.12085 | 137.26821 | 38787 ft | 540 kts | 32° |
| 2026-04-20 06:08 | 50.18290 | 137.33460 | 38805 ft | 542 kts | 32° |
| 2026-04-20 06:09 | 50.24504 | 137.40141 | 38796 ft | 543 kts | 32° |
| 2026-04-20 06:09 | 50.30691 | 137.46808 | 38801 ft | 543 kts | 32° |
| 2026-04-20 06:10 | 50.36908 | 137.53519 | 38811 ft | 543 kts | 32° |
| 2026-04-20 06:10 | 50.43080 | 137.60462 | 38817 ft | 543 kts | 35° |
| 2026-04-20 06:11 | 50.48999 | 137.67713 | 38818 ft | 543 kts | 36° |
| 2026-04-20 06:11 | 50.54937 | 137.75046 | 38821 ft | 543 kts | 36° |
| 2026-04-20 06:12 | 50.60946 | 137.82397 | 38825 ft | 543 kts | 36° |
| 2026-04-20 06:12 | 50.66924 | 137.89677 | 38829 ft | 543 kts | 36° |
| 2026-04-20 06:13 | 50.72859 | 137.96933 | 38832 ft | 543 kts | 36° |
| 2026-04-20 06:13 | 50.78829 | 138.04257 | 38837 ft | 543 kts | 35° |
| 2026-04-20 06:14 | 50.84790 | 138.11590 | 38850 ft | 542 kts | 36° |
| 2026-04-20 06:14 | 50.90738 | 138.18903 | 38841 ft | 540 kts | 34° |
| 2026-04-20 06:15 | 50.96966 | 138.25569 | 38858 ft | 540 kts | 30° |
| 2026-04-20 06:15 | 51.03258 | 138.32079 | 38867 ft | 539 kts | 30° |
| 2026-04-20 06:16 | 51.09551 | 138.38571 | 38874 ft | 539 kts | 30° |
| 2026-04-20 06:16 | 51.15835 | 138.45093 | 38880 ft | 539 kts | 30° |
| 2026-04-20 06:17 | 51.22116 | 138.51639 | 38884 ft | 539 kts | 30° |
| 2026-04-20 06:17 | 51.28389 | 138.58206 | 38885 ft | 539 kts | 30° |
| 2026-04-20 06:18 | 51.34662 | 138.64791 | 38883 ft | 539 kts | 30° |
| 2026-04-20 06:18 | 51.40930 | 138.71389 | 38904 ft | 540 kts | 30° |
| 2026-04-20 06:19 | 51.47199 | 138.78021 | 38905 ft | 539 kts | 30° |
| 2026-04-20 06:19 | 51.53453 | 138.84661 | 38906 ft | 539 kts | 30° |
| 2026-04-20 06:20 | 51.59715 | 138.91316 | 38914 ft | 539 kts | 30° |
| 2026-04-20 06:20 | 51.65964 | 138.97993 | 38926 ft | 539 kts | 30° |
| 2026-04-20 06:21 | 51.72200 | 139.04676 | 38936 ft | 538 kts | 30° |
| 2026-04-20 06:21 | 51.78432 | 139.11377 | 38935 ft | 538 kts | 30° |
| 2026-04-20 06:22 | 51.84663 | 139.18088 | 38947 ft | 538 kts | 30° |
| 2026-04-20 06:22 | 51.90877 | 139.24809 | 38954 ft | 537 kts | 30° |
| 2026-04-20 06:23 | 51.97069 | 139.31542 | 38953 ft | 536 kts | 30° |
| 2026-04-20 06:23 | 52.03263 | 139.38290 | 38960 ft | 536 kts | 30° |
| 2026-04-20 06:24 | 52.09453 | 139.45057 | 38967 ft | 536 kts | 30° |
| 2026-04-20 06:24 | 52.15599 | 139.51806 | 38965 ft | 531 kts | 29° |
| 2026-04-20 06:25 | 52.21710 | 139.58525 | 38973 ft | 530 kts | 30° |
| 2026-04-20 06:25 | 52.27812 | 139.65258 | 38977 ft | 530 kts | 30° |
| 2026-04-20 06:26 | 52.33910 | 139.72008 | 38973 ft | 528 kts | 30° |
| 2026-04-20 06:26 | 52.39961 | 139.78739 | 38980 ft | 524 kts | 30° |
| 2026-04-20 06:27 | 52.45987 | 139.85462 | 38987 ft | 524 kts | 30° |
| 2026-04-20 06:27 | 52.50985 | 139.91053 | 38988 ft | 523 kts | 30° |
| 2026-04-20 06:28 | 52.56994 | 139.97772 | 38985 ft | 519 kts | 31° |
| 2026-04-20 06:28 | 52.62921 | 140.04461 | 38994 ft | 515 kts | 31° |
| 2026-04-20 06:29 | 52.68751 | 140.11314 | 38992 ft | 515 kts | 33° |
| 2026-04-20 06:29 | 52.74505 | 140.18424 | 39001 ft | 517 kts | 33° |
| 2026-04-20 06:30 | 52.80238 | 140.25530 | 39009 ft | 513 kts | 33° |
| 2026-04-20 06:30 | 52.85943 | 140.32547 | 39013 ft | 512 kts | 33° |
| 2026-04-20 06:31 | 52.91661 | 140.39587 | 39015 ft | 510 kts | 33° |
| 2026-04-20 06:31 | 52.97345 | 140.46566 | 39016 ft | 508 kts | 32° |
| 2026-04-20 06:32 | 53.03010 | 140.53570 | 39027 ft | 508 kts | 33° |
| 2026-04-20 06:32 | 53.08655 | 140.60564 | 39041 ft | 505 kts | 33° |
| 2026-04-20 06:33 | 53.14301 | 140.67585 | 39046 ft | 506 kts | 32° |
| 2026-04-20 06:33 | 53.20198 | 140.73892 | 39047 ft | 502 kts | 29° |
| 2026-04-20 06:34 | 53.26157 | 140.79965 | 39052 ft | 501 kts | 28° |
| 2026-04-20 06:35 | 53.35069 | 140.89191 | 39058 ft | 502 kts | 28° |
| 2026-04-20 06:35 | 53.40965 | 140.95290 | 39061 ft | 499 kts | 28° |
| 2026-04-20 06:36 | 53.46847 | 141.01427 | 39074 ft | 498 kts | 28° |
| 2026-04-20 06:36 | 53.52760 | 141.07637 | 39069 ft | 502 kts | 28° |
| 2026-04-20 06:37 | 53.58683 | 141.13888 | 39063 ft | 503 kts | 28° |
| 2026-04-20 06:37 | 53.64610 | 141.20149 | 39075 ft | 503 kts | 28° |
| 2026-04-20 06:38 | 53.70498 | 141.26357 | 39078 ft | 504 kts | 28° |
| 2026-04-20 06:38 | 53.76457 | 141.32616 | 39085 ft | 503 kts | 28° |
| 2026-04-20 06:39 | 53.82377 | 141.38878 | 39080 ft | 500 kts | 29° |
| 2026-04-20 06:39 | 53.88279 | 141.45203 | 39084 ft | 503 kts | 29° |
| 2026-04-20 06:40 | 53.94224 | 141.51562 | 39094 ft | 501 kts | 29° |
| 2026-04-20 06:40 | 54.00119 | 141.57874 | 39088 ft | 500 kts | 29° |
| 2026-04-20 06:41 | 54.06026 | 141.64228 | 39098 ft | 503 kts | 29° |
| 2026-04-20 06:41 | 54.11968 | 141.70627 | 39094 ft | 503 kts | 30° |
| 2026-04-20 06:42 | 54.17860 | 141.77016 | 39111 ft | 502 kts | 29° |
| 2026-04-20 06:42 | 54.23748 | 141.83420 | 39106 ft | 501 kts | 30° |
| 2026-04-20 06:43 | 54.29633 | 141.89900 | 39103 ft | 502 kts | 30° |
| 2026-04-20 06:43 | 54.35503 | 141.96349 | 39113 ft | 502 kts | 30° |
| 2026-04-20 06:44 | 54.41407 | 142.02838 | 39111 ft | 506 kts | 30° |
| 2026-04-20 06:44 | 54.47276 | 142.09292 | 39114 ft | 503 kts | 29° |
| 2026-04-20 06:45 | 54.53147 | 142.15777 | 39122 ft | 503 kts | 30° |
| 2026-04-20 06:45 | 54.59039 | 142.22326 | 39124 ft | 505 kts | 30° |
| 2026-04-20 06:46 | 54.64902 | 142.28875 | 39123 ft | 499 kts | 30° |
| 2026-04-20 06:46 | 54.70713 | 142.35423 | 39127 ft | 498 kts | 30° |
| 2026-04-20 06:47 | 54.76511 | 142.41942 | 39131 ft | 495 kts | 31° |
| 2026-04-20 06:47 | 54.82313 | 142.48426 | 39138 ft | 497 kts | 30° |
| 2026-04-20 06:48 | 54.88114 | 142.54951 | 39136 ft | 497 kts | 31° |
| 2026-04-20 06:48 | 54.93902 | 142.61523 | 39136 ft | 497 kts | 31° |
| 2026-04-20 06:49 | 54.99676 | 142.68104 | 39138 ft | 494 kts | 31° |
| 2026-04-20 06:49 | 55.05416 | 142.74672 | 39133 ft | 494 kts | 31° |
| 2026-04-20 06:50 | 55.11130 | 142.81224 | 39140 ft | 495 kts | 31° |
| 2026-04-20 06:50 | 55.16879 | 142.87832 | 39148 ft | 495 kts | 31° |
| 2026-04-20 06:51 | 55.22626 | 142.94456 | 39140 ft | 494 kts | 31° |
| 2026-04-20 06:51 | 55.28341 | 143.01159 | 39140 ft | 494 kts | 32° |
| 2026-04-20 06:52 | 55.34030 | 143.07895 | 39140 ft | 492 kts | 32° |
| 2026-04-20 06:52 | 55.39710 | 143.14635 | 39141 ft | 492 kts | 32° |
| 2026-04-20 06:53 | 55.45389 | 143.21391 | 39141 ft | 492 kts | 32° |
| 2026-04-20 06:53 | 55.51018 | 143.28102 | 39141 ft | 492 kts | 32° |
| 2026-04-20 06:54 | 55.56680 | 143.34875 | 39139 ft | 492 kts | 32° |
| 2026-04-20 06:54 | 55.62347 | 143.41674 | 39140 ft | 492 kts | 32° |
| 2026-04-20 06:55 | 55.67996 | 143.48478 | 39149 ft | 491 kts | 32° |
| 2026-04-20 06:55 | 55.73639 | 143.55306 | 39143 ft | 491 kts | 32° |
| 2026-04-20 06:56 | 55.79277 | 143.62148 | 39142 ft | 490 kts | 32° |
| 2026-04-20 06:56 | 55.84906 | 143.69000 | 39154 ft | 490 kts | 32° |
| 2026-04-20 06:57 | 55.90533 | 143.75878 | 39142 ft | 491 kts | 32° |
| 2026-04-20 06:57 | 55.96155 | 143.82775 | 39149 ft | 490 kts | 32° |
| 2026-04-20 06:58 | 56.01724 | 143.89633 | 39149 ft | 489 kts | 32° |
| 2026-04-20 06:58 | 56.07317 | 143.96545 | 39149 ft | 489 kts | 32° |
| 2026-04-20 06:59 | 56.12914 | 144.03487 | 39151 ft | 489 kts | 32° |
| 2026-04-20 06:59 | 56.18509 | 144.10442 | 39151 ft | 489 kts | 32° |
| 2026-04-20 07:00 | 56.24092 | 144.17416 | 39153 ft | 489 kts | 32° |
| 2026-04-20 07:00 | 56.29675 | 144.24415 | 39157 ft | 489 kts | 32° |
| 2026-04-20 07:01 | 56.35228 | 144.31504 | 39155 ft | 489 kts | 33° |
| 2026-04-20 07:01 | 56.40750 | 144.38678 | 39157 ft | 489 kts | 33° |
| 2026-04-20 07:02 | 56.46271 | 144.45862 | 39153 ft | 490 kts | 34° |
| 2026-04-20 07:02 | 56.51809 | 144.53078 | 39154 ft | 490 kts | 34° |
| 2026-04-20 07:03 | 56.57343 | 144.60307 | 39155 ft | 491 kts | 34° |
| 2026-04-20 07:03 | 56.62874 | 144.67560 | 39152 ft | 490 kts | 34° |
| 2026-04-20 07:04 | 56.68399 | 144.74827 | 39151 ft | 491 kts | 34° |
| 2026-04-20 07:04 | 56.73927 | 144.82131 | 39151 ft | 492 kts | 34° |
| 2026-04-20 07:05 | 56.79458 | 144.89465 | 39152 ft | 492 kts | 34° |
| 2026-04-20 07:05 | 56.84949 | 144.96772 | 39151 ft | 492 kts | 34° |
| 2026-04-20 07:06 | 56.90476 | 145.04154 | 39153 ft | 492 kts | 34° |
| 2026-04-20 07:06 | 56.95993 | 145.11551 | 39154 ft | 491 kts | 34° |
| 2026-04-20 07:07 | 57.01513 | 145.18977 | 39153 ft | 492 kts | 35° |
| 2026-04-20 07:07 | 57.07030 | 145.26431 | 39154 ft | 492 kts | 35° |
| 2026-04-20 07:08 | 57.12544 | 145.33909 | 39154 ft | 492 kts | 35° |
| 2026-04-20 07:08 | 57.18048 | 145.41402 | 39157 ft | 492 kts | 36° |
| 2026-04-20 07:09 | 57.23541 | 145.48908 | 39155 ft | 491 kts | 35° |
| 2026-04-20 07:09 | 57.29030 | 145.56435 | 39154 ft | 491 kts | 36° |
| 2026-04-20 07:10 | 57.34476 | 145.63929 | 39153 ft | 491 kts | 36° |
| 2026-04-20 07:10 | 57.39958 | 145.71503 | 39154 ft | 491 kts | 36° |
| 2026-04-20 07:11 | 57.45423 | 145.79086 | 39155 ft | 489 kts | 36° |
| 2026-04-20 07:11 | 57.50865 | 145.86663 | 39157 ft | 488 kts | 36° |
| 2026-04-20 07:12 | 57.56299 | 145.94262 | 39158 ft | 489 kts | 36° |
| 2026-04-20 07:12 | 57.61735 | 146.01893 | 39157 ft | 489 kts | 36° |
| 2026-04-20 07:13 | 57.67168 | 146.09543 | 39160 ft | 489 kts | 36° |
| 2026-04-20 07:13 | 57.72581 | 146.17202 | 39158 ft | 488 kts | 36° |
| 2026-04-20 07:14 | 57.77993 | 146.24877 | 39157 ft | 488 kts | 36° |
| 2026-04-20 07:14 | 57.83360 | 146.32525 | 39154 ft | 487 kts | 36° |
| 2026-04-20 07:15 | 57.88741 | 146.40224 | 39154 ft | 486 kts | 37° |
| 2026-04-20 07:15 | 57.94129 | 146.47962 | 39159 ft | 488 kts | 37° |
| 2026-04-20 07:16 | 57.99510 | 146.55720 | 39155 ft | 486 kts | 37° |
| 2026-04-20 07:16 | 58.04875 | 146.63483 | 39154 ft | 486 kts | 37° |
| 2026-04-20 07:17 | 58.10212 | 146.71237 | 39155 ft | 488 kts | 37° |
| 2026-04-20 07:17 | 58.15595 | 146.79088 | 39157 ft | 488 kts | 38° |
| 2026-04-20 07:18 | 58.20961 | 146.86943 | 39157 ft | 486 kts | 38° |
| 2026-04-20 07:18 | 58.26307 | 146.94796 | 39156 ft | 486 kts | 38° |
| 2026-04-20 07:19 | 58.26831 | 146.95567 | 39153 ft | 486 kts | 38° |
| 2026-04-20 07:20 | 58.27751 | 146.96924 | 39154 ft | 486 kts | 38° |
| 2026-04-20 07:20 | 58.33094 | 147.04820 | 39154 ft | 487 kts | 38° |
| 2026-04-20 07:21 | 58.38435 | 147.12744 | 39155 ft | 486 kts | 38° |
| 2026-04-20 07:21 | 58.43772 | 147.20691 | 39151 ft | 487 kts | 38° |
| 2026-04-20 07:22 | 58.49101 | 147.28656 | 39151 ft | 486 kts | 38° |
| 2026-04-20 07:22 | 58.54418 | 147.36635 | 39151 ft | 486 kts | 38° |
| 2026-04-20 07:23 | 58.59731 | 147.44638 | 39156 ft | 486 kts | 39° |
| 2026-04-20 07:23 | 58.65038 | 147.52666 | 39151 ft | 486 kts | 39° |
| 2026-04-20 07:24 | 58.70292 | 147.60653 | 38683 ft | 481 kts | 39° |
| 2026-04-20 07:24 | 58.72923 | 147.64661 | 37712 ft | 485 kts | 39° |
| 2026-04-20 07:24 | 58.75577 | 147.68710 | 36803 ft | 488 kts | 40° |
| 2026-04-20 07:24 | 58.78237 | 147.72777 | 35992 ft | 488 kts | 40° |
| 2026-04-20 07:25 | 58.80892 | 147.76848 | 35214 ft | 487 kts | 40° |
| 2026-04-20 07:25 | 58.83543 | 147.80919 | 34456 ft | 486 kts | 41° |
| 2026-04-20 07:25 | 58.86182 | 147.84980 | 33607 ft | 485 kts | 41° |
| 2026-04-20 07:25 | 58.88823 | 147.89054 | 32685 ft | 484 kts | 42° |
| 2026-04-20 07:26 | 58.91450 | 147.93112 | 31779 ft | 483 kts | 42° |
| 2026-04-20 07:26 | 58.94072 | 147.97172 | 30964 ft | 481 kts | 43° |
| 2026-04-20 07:26 | 58.96665 | 148.01194 | 30356 ft | 475 kts | 43° |
| 2026-04-20 07:26 | 58.99228 | 148.05174 | 29717 ft | 468 kts | 43° |
| 2026-04-20 07:27 | 59.01749 | 148.09096 | 29139 ft | 461 kts | 43° |
| 2026-04-20 07:27 | 59.04226 | 148.12960 | 28575 ft | 454 kts | 43° |
| 2026-04-20 07:27 | 59.06668 | 148.16782 | 28054 ft | 447 kts | 43° |
| 2026-04-20 07:27 | 59.09069 | 148.20554 | 27515 ft | 441 kts | 43° |
| 2026-04-20 07:28 | 59.11438 | 148.24280 | 26981 ft | 435 kts | 43° |
| 2026-04-20 07:28 | 59.13779 | 148.27964 | 26450 ft | 430 kts | 43° |
| 2026-04-20 07:28 | 59.16060 | 148.31561 | 25930 ft | 425 kts | 43° |
| 2026-04-20 07:28 | 59.18341 | 148.35166 | 25424 ft | 420 kts | 43° |
| 2026-04-20 07:29 | 59.20601 | 148.38739 | 24906 ft | 416 kts | 43° |
| 2026-04-20 07:29 | 59.22831 | 148.42271 | 24390 ft | 411 kts | 43° |
| 2026-04-20 07:29 | 59.25041 | 148.45775 | 23868 ft | 407 kts | 43° |
| 2026-04-20 07:29 | 59.27230 | 148.49257 | 23308 ft | 403 kts | 43° |
| 2026-04-20 07:30 | 59.29384 | 148.52689 | 22759 ft | 397 kts | 43° |
| 2026-04-20 07:30 | 59.31509 | 148.56077 | 22275 ft | 390 kts | 43° |
| 2026-04-20 07:30 | 59.33598 | 148.59413 | 21767 ft | 385 kts | 43° |
| 2026-04-20 07:30 | 59.35657 | 148.62707 | 21262 ft | 380 kts | 43° |
| 2026-04-20 07:31 | 59.37692 | 148.65968 | 20758 ft | 376 kts | 43° |
| 2026-04-20 07:31 | 59.39703 | 148.69197 | 20264 ft | 371 kts | 43° |
| 2026-04-20 07:31 | 59.41692 | 148.72397 | 19763 ft | 368 kts | 43° |
| 2026-04-20 07:31 | 59.43666 | 148.75580 | 19252 ft | 365 kts | 43° |
| 2026-04-20 07:32 | 59.45619 | 148.78730 | 18753 ft | 362 kts | 42° |
| 2026-04-20 07:32 | 59.47560 | 148.81865 | 18230 ft | 359 kts | 42° |
| 2026-04-20 07:32 | 59.49480 | 148.84971 | 17687 ft | 356 kts | 42° |
| 2026-04-20 07:32 | 59.51385 | 148.88057 | 17201 ft | 353 kts | 42° |
| 2026-04-20 07:33 | 59.53274 | 148.91122 | 16713 ft | 351 kts | 42° |
| 2026-04-20 07:33 | 59.55150 | 148.94171 | 16209 ft | 348 kts | 42° |
| 2026-04-20 07:33 | 59.57010 | 148.97199 | 15715 ft | 346 kts | 42° |
| 2026-04-20 07:33 | 59.58860 | 149.00213 | 15233 ft | 343 kts | 42° |
| 2026-04-20 07:34 | 59.60694 | 149.03207 | 14733 ft | 341 kts | 42° |
| 2026-04-20 07:34 | 59.62512 | 149.06180 | 14263 ft | 338 kts | 42° |
| 2026-04-20 07:34 | 59.64315 | 149.09131 | 13756 ft | 335 kts | 42° |
| 2026-04-20 07:35 | 59.67709 | 149.15298 | 12790 ft | 327 kts | 54° |
| 2026-04-20 07:35 | 59.68913 | 149.19077 | 12334 ft | 322 kts | 63° |
| 2026-04-20 07:35 | 59.69948 | 149.22914 | 11878 ft | 319 kts | 64° |
| 2026-04-20 07:35 | 59.70978 | 149.26793 | 11390 ft | 317 kts | 64° |
| 2026-04-20 07:36 | 59.71992 | 149.30601 | 11146 ft | 306 kts | 63° |
| 2026-04-20 07:36 | 59.72962 | 149.34244 | 11021 ft | 291 kts | 64° |
| 2026-04-20 07:36 | 59.73885 | 149.37705 | 10915 ft | 277 kts | 64° |
| 2026-04-20 07:36 | 59.74765 | 149.41009 | 10800 ft | 264 kts | 64° |
| 2026-04-20 07:37 | 59.75599 | 149.44143 | 10687 ft | 251 kts | 64° |
| 2026-04-20 07:37 | 59.76398 | 149.47152 | 10567 ft | 244 kts | 64° |
| 2026-04-20 07:37 | 59.77187 | 149.50133 | 10436 ft | 244 kts | 64° |
| 2026-04-20 07:37 | 59.77976 | 149.53113 | 10208 ft | 243 kts | 64° |
| 2026-04-20 07:38 | 59.78764 | 149.56083 | 9934 ft | 248 kts | 64° |
| 2026-04-20 07:38 | 59.79588 | 149.59210 | 9833 ft | 260 kts | 64° |
| 2026-04-20 07:38 | 59.80425 | 149.62381 | 9559 ft | 258 kts | 64° |
| 2026-04-20 07:38 | 59.81263 | 149.65555 | 9064 ft | 259 kts | 63° |
| 2026-04-20 07:39 | 59.82099 | 149.68719 | 8739 ft | 258 kts | 63° |
| 2026-04-20 07:39 | 59.82929 | 149.71871 | 8372 ft | 257 kts | 63° |
| 2026-04-20 07:39 | 59.83752 | 149.75000 | 8080 ft | 254 kts | 63° |
| 2026-04-20 07:39 | 59.84568 | 149.78112 | 7798 ft | 253 kts | 63° |
| 2026-04-20 07:40 | 59.85381 | 149.81216 | 7506 ft | 253 kts | 63° |
| 2026-04-20 07:40 | 59.86193 | 149.84309 | 7228 ft | 252 kts | 63° |
| 2026-04-20 07:40 | 59.87000 | 149.87399 | 6928 ft | 251 kts | 63° |
| 2026-04-20 07:40 | 59.87804 | 149.90482 | 6659 ft | 251 kts | 63° |
| 2026-04-20 07:41 | 59.88605 | 149.93553 | 6367 ft | 249 kts | 62° |
| 2026-04-20 07:41 | 59.89404 | 149.96622 | 6073 ft | 250 kts | 62° |
| 2026-04-20 07:41 | 59.90197 | 149.99686 | 5785 ft | 248 kts | 62° |
| 2026-04-20 07:41 | 59.90989 | 150.02730 | 5516 ft | 247 kts | 62° |
| 2026-04-20 07:42 | 59.91776 | 150.05768 | 5231 ft | 246 kts | 62° |
| 2026-04-20 07:42 | 59.92397 | 150.08934 | 4954 ft | 246 kts | 75° |
| 2026-04-20 07:42 | 59.92641 | 150.12324 | 4672 ft | 248 kts | 85° |
| 2026-04-20 07:42 | 59.92623 | 150.15766 | 4421 ft | 248 kts | 90° |
| 2026-04-20 07:43 | 59.92521 | 150.19070 | 4315 ft | 234 kts | 91° |
| 2026-04-20 07:43 | 59.92424 | 150.22205 | 4229 ft | 220 kts | 91° |
| 2026-04-20 07:43 | 59.92333 | 150.25162 | 4136 ft | 207 kts | 90° |
| 2026-04-20 07:43 | 59.92252 | 150.27950 | 4048 ft | 196 kts | 90° |
| 2026-04-20 07:44 | 59.92179 | 150.30617 | 4004 ft | 191 kts | 89° |
| 2026-04-20 07:44 | 59.92113 | 150.33260 | 4003 ft | 191 kts | 89° |
| 2026-04-20 07:44 | 59.92048 | 150.35917 | 3994 ft | 192 kts | 90° |
| 2026-04-20 07:44 | 59.91983 | 150.38540 | 3821 ft | 186 kts | 90° |
| 2026-04-20 07:45 | 59.91915 | 150.41081 | 3549 ft | 181 kts | 89° |
| 2026-04-20 07:45 | 59.91850 | 150.43507 | 3289 ft | 169 kts | 89° |
| 2026-04-20 07:45 | 59.91789 | 150.45764 | 3033 ft | 157 kts | 89° |
| 2026-04-20 07:45 | 59.91732 | 150.47880 | 2804 ft | 148 kts | 89° |
| 2026-04-20 07:46 | 59.91680 | 150.49848 | 2585 ft | 137 kts | 89° |
| 2026-04-20 07:46 | 59.91632 | 150.51694 | 2397 ft | 131 kts | 87° |
| 2026-04-20 07:46 | 59.91586 | 150.53507 | 2182 ft | 132 kts | 88° |
| 2026-04-20 07:46 | 59.91537 | 150.55340 | 1971 ft | 133 kts | 87° |
| 2026-04-20 07:47 | 59.91489 | 150.57207 | 1761 ft | 137 kts | 89° |
| 2026-04-20 07:47 | 59.91437 | 150.59103 | 1562 ft | 137 kts | 86° |
| 2026-04-20 07:47 | 59.91387 | 150.61010 | 1370 ft | 138 kts | 87° |
| 2026-04-20 07:47 | 59.91337 | 150.62922 | 1191 ft | 138 kts | 87° |
| 2026-04-20 07:48 | 59.91285 | 150.64829 | 1008 ft | 137 kts | 89° |
| 2026-04-20 07:48 | 59.91238 | 150.66707 | 823 ft | 135 kts | 90° |
| 2026-04-20 07:48 | 59.91187 | 150.68584 | 665 ft | 136 kts | 90° |
| 2026-04-20 07:48 | 59.91139 | 150.70433 | 592 ft | 126 kts | 94° |
| 2026-04-20 07:49 | 59.91099 | 150.71995 | 587 ft | 98 kts | 92° |
| 2026-04-20 07:49 | 59.91069 | 150.73149 | 592 ft | 64 kts | 93° |
| 2026-04-20 07:49 | 59.91058 | 150.73541 | 589 ft | 0 kts | 93° |